Time;durP1;ratioP1;P1;durP2;ratioP2;P2;SDS_P1;SDS_P2;PMS_P1;PMS_P2;Temp;Humidity;BMP_temperature;BMP_pressure;BME280_temperature;BME280_humidity;BME280_pressure;Samples;Min_cycle;Max_cycle;Signal;HPM_P1;HPM_P2
2023/10/15 00:00:13;;;;;;;3.47;2.07;;;7.40;99.90;;;;;;5037099;28;20767;-67
2023/10/15 00:02:43;;;;;;;2.73;1.80;;;7.40;99.90;;;;;;5037016;28;20411;-65
2023/10/15 00:05:12;;;;;;;2.97;1.80;;;7.40;99.90;;;;;;5036054;28;20833;-65
2023/10/15 00:07:38;;;;;;;5.00;1.90;;;7.40;99.90;;;;;;5047249;28;20502;-65
2023/10/15 00:10:09;;;;;;;8.30;2.57;;;7.40;99.90;;;;;;5055859;28;20421;-65
2023/10/15 00:12:35;;;;;;;3.27;2.03;;;7.40;99.90;;;;;;5056731;28;20551;-65
2023/10/15 00:15:00;;;;;;;3.40;1.77;;;7.50;99.90;;;;;;5055824;28;20496;-65
2023/10/15 00:17:27;;;;;;;1.97;1.87;;;7.50;99.90;;;;;;5055667;28;20597;-65
2023/10/15 00:19:53;;;;;;;1.90;1.80;;;7.60;99.90;;;;;;5056801;28;20178;-65
2023/10/15 00:22:19;;;;;;;2.80;1.70;;;7.50;99.90;;;;;;5040155;28;20430;-66
2023/10/15 00:24:45;;;;;;;3.00;1.77;;;7.50;99.90;;;;;;5035495;28;20444;-65
2023/10/15 00:27:10;;;;;;;11.43;2.70;;;7.50;99.90;;;;;;5035836;28;20262;-65
2023/10/15 00:29:36;;;;;;;2.90;2.13;;;7.40;99.90;;;;;;5036516;28;20203;-65
2023/10/15 00:32:03;;;;;;;5.27;2.43;;;7.40;99.90;;;;;;5035464;28;20214;-65
2023/10/15 00:34:30;;;;;;;8.20;2.17;;;7.40;99.90;;;;;;5034697;28;20184;-67
2023/10/15 00:36:56;;;;;;;4.53;1.60;;;7.40;99.90;;;;;;5036063;28;20418;-65
2023/10/15 00:39:21;;;;;;;3.80;2.13;;;7.30;99.90;;;;;;5036354;28;20405;-65
2023/10/15 00:41:47;;;;;;;3.07;2.23;;;7.20;99.90;;;;;;5036419;28;20535;-65
2023/10/15 00:44:14;;;;;;;3.90;2.40;;;7.20;99.90;;;;;;5035274;28;20183;-66
2023/10/15 00:46:41;;;;;;;3.17;1.97;;;7.10;99.90;;;;;;5036718;28;20458;-66
2023/10/15 00:49:12;;;;;;;9.67;2.77;;;7.10;99.90;;;;;;5035884;28;20454;-66
2023/10/15 00:51:40;;;;;;;2.67;1.90;;;7.10;99.90;;;;;;5036168;28;20991;-66
2023/10/15 00:54:11;;;;;;;6.07;3.00;;;7.10;99.90;;;;;;5035739;28;20516;-65
2023/10/15 00:56:39;;;;;;;2.63;2.43;;;7.10;99.90;;;;;;5035005;28;20430;-67
2023/10/15 01:01:50;;;;;;;10.13;2.40;;;7.00;99.90;;;;;;5037833;28;20496;-65
2023/10/15 01:04:15;;;;;;;3.00;2.13;;;7.10;99.90;;;;;;5046231;28;20876;-67
2023/10/15 01:06:46;;;;;;;8.07;1.87;;;7.20;99.90;;;;;;5034631;28;20447;-68
2023/10/15 01:09:20;;;;;;;4.40;1.60;;;7.20;99.90;;;;;;5034465;28;20207;-66
2023/10/15 01:11:55;;;;;;;8.90;2.17;;;7.10;99.90;;;;;;5035867;28;20394;-65
2023/10/15 01:14:27;;;;;;;4.90;2.10;;;7.20;99.90;;;;;;5035825;28;20399;-65
2023/10/15 01:16:53;;;;;;;2.70;2.50;;;7.20;99.90;;;;;;5044947;28;20530;-68
2023/10/15 01:19:21;;;;;;;6.77;2.90;;;7.20;99.90;;;;;;5055508;28;20406;-67
2023/10/15 01:21:57;;;;;;;4.37;2.23;;;7.10;99.90;;;;;;5053699;28;20440;-67
2023/10/15 01:24:33;;;;;;;5.70;2.53;;;7.10;99.90;;;;;;5053690;28;20835;-74
2023/10/15 01:27:11;;;;;;;4.67;1.93;;;7.10;99.90;;;;;;5055240;28;20429;-65
2023/10/15 01:29:45;;;;;;;6.03;2.40;;;7.10;99.90;;;;;;5046013;28;20476;-65
2023/10/15 01:32:22;;;;;;;7.70;3.07;;;7.10;99.90;;;;;;5034361;28;20422;-65
2023/10/15 01:34:52;;;;;;;8.43;2.63;;;7.10;99.90;;;;;;5034069;28;20468;-65
2023/10/15 01:37:24;;;;;;;4.63;2.33;;;7.10;99.90;;;;;;5035211;28;20429;-65
2023/10/15 01:42:40;;;;;;;2.30;1.93;;;7.10;99.90;;;;;;5034497;28;20480;-65
2023/10/15 01:48:04;;;;;;;6.77;2.53;;;7.20;99.90;;;;;;5034977;28;20429;-65
2023/10/15 01:50:49;;;;;;;7.07;1.90;;;7.20;1.00;;;;;;5035122;28;20398;-65
2023/10/15 01:53:15;;;;;;;9.53;1.80;;;7.10;99.90;;;;;;5034431;28;20426;-65
2023/10/15 01:55:53;;;;;;;7.30;2.53;;;7.10;1.00;;;;;;5034014;28;20402;-65
2023/10/15 01:58:24;;;;;;;5.00;2.33;;;7.10;1.00;;;;;;5033401;28;20790;-66
2023/10/15 02:00:51;;;;;;;6.40;2.30;;;7.10;1.00;;;;;;5034771;28;20953;-65
2023/10/15 02:03:17;;;;;;;9.43;2.87;;;7.20;1.00;;;;;;5034557;28;20406;-66
2023/10/15 02:05:42;;;;;;;8.77;3.30;;;7.10;1.00;;;;;;5036077;28;20456;-65
2023/10/15 02:08:12;;;;;;;19.83;3.90;;;7.10;1.00;;;;;;5034727;28;20538;-65
2023/10/15 02:10:39;;;;;;;6.60;2.93;;;7.20;1.00;;;;;;5034157;28;20260;-66
2023/10/15 02:13:08;;;;;;;6.20;2.77;;;7.30;1.00;;;;;;5034715;28;20431;-65
2023/10/15 02:15:39;;;;;;;6.57;2.90;;;7.30;1.00;;;;;;5032885;28;20409;-65
2023/10/15 02:18:07;;;;;;;7.60;2.80;;;7.30;1.00;;;;;;5034580;28;20883;-65
2023/10/15 02:21:07;;;;;;;7.10;2.97;;;7.30;1.00;;;;;;5046185;28;20779;-65
2023/10/15 02:23:27;;;;;;;11.10;2.80;;;7.20;99.90;;;;;;5054953;28;20840;-65
2023/10/15 02:25:57;;;;;;;5.83;3.00;;;7.20;99.90;;;;;;5053532;28;20428;-65
2023/10/15 02:28:44;;;;;;;7.70;2.80;;;7.20;99.90;;;;;;5054198;28;20454;-65
2023/10/15 02:33:36;;;;;;;2.70;2.23;;;7.20;99.90;;;;;;5053452;28;20786;-67
2023/10/15 02:36:07;;;;;;;6.10;2.73;;;7.20;99.90;;;;;;5050261;28;20554;-65
2023/10/15 02:38:52;;;;;;;7.20;3.60;;;7.10;99.90;;;;;;5034102;28;20403;-65
2023/10/15 02:41:20;;;;;;;8.30;3.30;;;7.10;99.90;;;;;;5034094;28;20591;-65
2023/10/15 02:43:53;;;;;;;19.30;7.13;;;7.10;99.90;;;;;;5034013;28;20402;-65
2023/10/15 02:46:22;;;;;;;9.83;2.83;;;7.10;99.90;;;;;;5033036;28;20439;-64
2023/10/15 02:48:54;;;;;;;4.03;2.20;;;7.10;99.90;;;;;;5033927;28;20458;-64
2023/10/15 02:51:24;;;;;;;7.00;3.20;;;7.10;99.90;;;;;;5033167;28;20407;-65
2023/10/15 02:53:52;;;;;;;10.40;2.97;;;7.10;99.90;;;;;;5047862;28;20437;-64
2023/10/15 02:56:22;;;;;;;10.47;3.20;;;7.20;99.90;;;;;;5052739;28;20785;-64
2023/10/15 02:58:49;;;;;;;5.63;2.50;;;7.20;99.90;;;;;;5052495;28;20856;-64
2023/10/15 03:01:25;;;;;;;11.40;2.87;;;7.20;99.90;;;;;;5048674;28;20479;-65
2023/10/15 03:03:53;;;;;;;6.60;2.90;;;7.20;99.90;;;;;;5035453;28;20438;-65
2023/10/15 03:06:25;;;;;;;7.03;2.67;;;7.20;99.90;;;;;;5032628;28;20530;-64
2023/10/15 03:08:51;;;;;;;11.63;2.87;;;7.20;99.90;;;;;;5034999;28;20465;-68
2023/10/15 03:11:20;;;;;;;5.70;3.20;;;7.20;99.90;;;;;;5053091;28;20416;-64
2023/10/15 03:13:54;;;;;;;14.77;2.47;;;7.20;99.90;;;;;;5053457;28;20429;-65
2023/10/15 03:16:26;;;;;;;9.93;2.90;;;7.10;99.90;;;;;;5052442;28;20467;-64
2023/10/15 03:18:52;;;;;;;7.37;3.60;;;7.20;99.90;;;;;;5053474;28;20893;-64
2023/10/15 03:21:30;;;;;;;6.50;2.60;;;7.20;99.90;;;;;;5050698;28;20440;-64
2023/10/15 03:23:57;;;;;;;5.87;2.80;;;7.20;99.90;;;;;;5052642;28;20977;-65
2023/10/15 03:26:34;;;;;;;4.70;3.07;;;7.20;99.90;;;;;;5050480;28;20460;-65
2023/10/15 03:29:00;;;;;;;5.80;2.60;;;7.20;99.90;;;;;;5053184;28;20530;-65
2023/10/15 03:31:31;;;;;;;6.20;3.20;;;7.30;99.90;;;;;;5053317;28;20725;-64
2023/10/15 03:42:09;;;;;;;10.00;2.43;;;7.10;99.90;;;;;;5053117;28;20492;-65
2023/10/15 03:44:37;;;;;;;9.17;2.67;;;7.10;99.90;;;;;;5052058;28;20405;-69
2023/10/15 03:47:04;;;;;;;3.83;2.00;;;7.10;99.90;;;;;;5052600;28;20495;-64
2023/10/15 03:49:31;;;;;;;7.03;2.83;;;7.10;99.90;;;;;;5052978;28;20457;-64
2023/10/15 03:51:57;;;;;;;7.07;2.43;;;7.10;99.90;;;;;;5051075;28;20433;-64
2023/10/15 03:54:23;;;;;;;9.13;2.70;;;7.10;99.90;;;;;;5052872;28;20408;-72
2023/10/15 03:56:51;;;;;;;7.20;2.30;;;7.00;99.90;;;;;;5052181;28;20422;-64
2023/10/15 03:59:19;;;;;;;3.67;2.27;;;7.00;99.90;;;;;;5053062;28;20886;-64
2023/10/15 04:01:48;;;;;;;5.60;3.20;;;6.90;99.90;;;;;;5052690;28;20412;-65
2023/10/15 04:04:18;;;;;;;4.07;2.47;;;6.90;99.90;;;;;;5052345;28;20482;-66
2023/10/15 04:06:54;;;;;;;3.07;2.27;;;6.90;99.90;;;;;;5050430;28;20429;-65
2023/10/15 04:09:24;;;;;;;10.00;3.90;;;6.90;99.90;;;;;;5032944;28;20439;-64
2023/10/15 04:11:50;;;;;;;5.83;2.07;;;6.80;99.90;;;;;;5031708;28;20895;-64
2023/10/15 04:14:28;;;;;;;5.00;2.37;;;6.90;99.90;;;;;;5031570;28;20415;-64
2023/10/15 04:16:54;;;;;;;3.13;2.50;;;6.80;99.90;;;;;;5032222;28;20432;-64
2023/10/15 04:19:20;;;;;;;2.80;1.70;;;6.80;99.90;;;;;;5032929;28;20410;-65
2023/10/15 04:21:46;;;;;;;6.33;2.17;;;6.80;99.90;;;;;;5031900;28;20524;-64
2023/10/15 04:24:21;;;;;;;9.60;2.30;;;6.90;99.90;;;;;;5033441;28;20413;-65
2023/10/15 04:26:50;;;;;;;5.63;2.37;;;6.70;99.90;;;;;;5037134;28;20457;-64
2023/10/15 04:29:16;;;;;;;7.70;2.60;;;6.70;99.90;;;;;;5032713;28;20447;-64
2023/10/15 04:32:08;;;;;;;3.20;2.23;;;6.80;99.90;;;;;;5032762;28;20545;-64
2023/10/15 04:34:36;;;;;;;8.30;2.50;;;6.80;99.90;;;;;;5034057;28;20405;-66
2023/10/15 04:37:16;;;;;;;7.37;3.00;;;6.80;99.90;;;;;;5036439;28;20426;-64
2023/10/15 04:39:55;;;;;;;5.43;2.40;;;6.80;99.90;;;;;;5051081;28;20396;-65
2023/10/15 04:42:24;;;;;;;7.60;2.60;;;6.70;99.90;;;;;;5055703;28;20409;-65
2023/10/15 04:44:50;;;;;;;7.17;2.47;;;6.70;99.90;;;;;;5055372;28;20513;-65
2023/10/15 04:47:27;;;;;;;5.27;2.73;;;6.70;99.90;;;;;;5056249;28;20521;-65
2023/10/15 04:49:57;;;;;;;10.40;2.40;;;6.70;99.90;;;;;;5055903;28;20457;-66
2023/10/15 04:52:24;;;;;;;6.23;2.70;;;6.80;99.90;;;;;;5056090;28;20431;-64
2023/10/15 04:54:51;;;;;;;8.40;3.00;;;6.80;99.90;;;;;;5052193;28;20422;-65
2023/10/15 04:57:17;;;;;;;10.43;2.63;;;6.80;99.90;;;;;;5035351;28;20505;-66
2023/10/15 04:59:43;;;;;;;7.30;2.63;;;6.70;99.90;;;;;;5036023;28;20500;-65
2023/10/15 05:02:08;;;;;;;6.77;2.90;;;6.70;99.90;;;;;;5035660;28;20183;-64
2023/10/15 05:04:34;;;;;;;9.07;2.60;;;6.70;99.90;;;;;;5034851;28;20417;-69
2023/10/15 05:07:00;;;;;;;3.33;2.77;;;6.70;99.90;;;;;;5044857;28;20291;-64
2023/10/15 05:09:31;;;;;;;10.13;2.53;;;6.70;99.90;;;;;;5054629;28;20667;-64
2023/10/15 05:11:57;;;;;;;5.13;2.30;;;6.60;99.90;;;;;;5053487;28;20175;-64
2023/10/15 05:14:23;;;;;;;2.40;2.20;;;6.60;99.90;;;;;;5043842;28;20461;-69
2023/10/15 05:16:49;;;;;;;8.33;3.10;;;6.60;99.90;;;;;;5034798;28;20469;-65
2023/10/15 05:19:19;;;;;;;5.80;2.27;;;6.60;99.90;;;;;;5034637;28;20263;-65
2023/10/15 05:21:46;;;;;;;3.43;2.53;;;6.70;99.90;;;;;;5035752;28;20179;-65
2023/10/15 05:24:18;;;;;;;14.43;2.73;;;6.60;99.90;;;;;;5035615;28;20429;-64
2023/10/15 05:26:47;;;;;;;7.13;3.07;;;6.60;99.90;;;;;;5034580;28;20994;-66
2023/10/15 05:29:15;;;;;;;5.03;2.67;;;6.60;99.90;;;;;;5048149;28;21009;-64
2023/10/15 05:31:44;;;;;;;6.20;3.17;;;6.50;99.90;;;;;;5055353;28;20889;-65
2023/10/15 05:34:10;;;;;;;7.40;3.13;;;6.50;99.90;;;;;;5054764;28;20406;-64
2023/10/15 05:36:36;;;;;;;8.30;2.87;;;6.50;99.90;;;;;;5052944;28;20437;-63
2023/10/15 05:39:08;;;;;;;5.10;2.70;;;6.50;99.90;;;;;;5053837;28;20910;-64
2023/10/15 05:41:34;;;;;;;5.87;2.17;;;6.60;99.90;;;;;;5055104;28;20413;-63
2023/10/15 05:44:01;;;;;;;4.80;2.13;;;6.60;99.90;;;;;;5053124;28;20440;-64
2023/10/15 05:46:27;;;;;;;14.27;2.87;;;6.60;99.90;;;;;;5053177;28;20489;-64
2023/10/15 05:48:54;;;;;;;6.03;2.93;;;6.60;99.90;;;;;;5054880;28;20969;-64
2023/10/15 05:51:20;;;;;;;11.07;3.47;;;6.60;99.90;;;;;;5055021;28;20406;-64
2023/10/15 05:53:46;;;;;;;2.73;2.40;;;6.60;99.90;;;;;;5054295;28;20408;-66
2023/10/15 05:56:12;;;;;;;4.83;2.57;;;6.60;99.90;;;;;;5051568;28;20561;-64
2023/10/15 05:58:38;;;;;;;3.23;2.50;;;6.60;99.90;;;;;;5038961;28;20437;-64
2023/10/15 06:01:03;;;;;;;12.30;2.80;;;6.60;99.90;;;;;;5047793;28;20211;-65
2023/10/15 06:03:33;;;;;;;7.33;2.47;;;6.60;99.90;;;;;;5034897;28;20168;-64
2023/10/15 06:05:59;;;;;;;4.27;2.20;;;6.60;99.90;;;;;;5033832;28;20199;-64
2023/10/15 06:08:25;;;;;;;5.07;2.60;;;6.60;99.90;;;;;;5034636;28;20973;-65
2023/10/15 06:10:51;;;;;;;2.17;2.07;;;6.60;99.90;;;;;;5033559;28;20521;-64
2023/10/15 06:13:17;;;;;;;3.13;2.30;;;6.60;99.90;;;;;;5033368;28;20227;-64
2023/10/15 06:15:42;;;;;;;9.53;2.87;;;6.60;99.90;;;;;;5033713;28;20686;-64
2023/10/15 06:18:11;;;;;;;12.17;3.10;;;6.60;99.90;;;;;;5033419;28;20410;-64
2023/10/15 06:20:36;;;;;;;5.50;3.10;;;6.60;99.90;;;;;;5034695;28;20660;-64
2023/10/15 06:23:07;;;;;;;4.70;2.20;;;6.50;99.90;;;;;;5034471;28;20493;-64
2023/10/15 06:25:35;;;;;;;3.53;2.13;;;6.50;99.90;;;;;;5033526;28;20163;-67
2023/10/15 06:28:01;;;;;;;3.57;2.70;;;6.50;99.90;;;;;;5054064;28;20764;-64
2023/10/15 06:30:27;;;;;;;4.37;2.70;;;6.50;99.90;;;;;;5054369;28;20477;-64
2023/10/15 06:32:53;;;;;;;8.93;2.70;;;6.60;99.90;;;;;;5054261;28;20507;-64
2023/10/15 06:35:25;;;;;;;3.30;2.73;;;6.60;99.90;;;;;;5052836;28;20174;-64
2023/10/15 06:37:55;;;;;;;10.33;2.43;;;6.60;99.90;;;;;;5052809;28;20297;-65
2023/10/15 06:40:21;;;;;;;5.80;2.30;;;6.60;99.90;;;;;;5052799;28;20856;-66
2023/10/15 06:42:47;;;;;;;4.23;2.03;;;6.60;99.90;;;;;;5053481;28;20396;-66
2023/10/15 06:45:19;;;;;;;5.80;3.10;;;6.60;99.90;;;;;;5052996;28;20494;-65
2023/10/15 06:47:46;;;;;;;6.23;2.03;;;6.70;99.90;;;;;;5053890;28;20210;-64
2023/10/15 06:50:12;;;;;;;4.30;2.87;;;6.70;99.90;;;;;;5053880;28;20499;-64
2023/10/15 06:52:39;;;;;;;6.37;2.30;;;6.80;99.90;;;;;;5048239;28;20444;-64
2023/10/15 06:55:07;;;;;;;4.00;2.43;;;6.80;99.90;;;;;;5051652;28;20482;-64
2023/10/15 06:57:33;;;;;;;5.63;1.90;;;6.90;99.90;;;;;;5053496;28;20413;-64
2023/10/15 06:59:59;;;;;;;3.83;2.30;;;6.90;99.90;;;;;;5047742;28;20498;-65
2023/10/15 07:02:28;;;;;;;5.43;2.17;;;6.90;99.90;;;;;;5034305;28;20436;-65
2023/10/15 07:05:00;;;;;;;2.53;2.00;;;6.90;99.90;;;;;;5032749;28;20422;-65
2023/10/15 07:07:26;;;;;;;6.00;2.10;;;7.00;99.90;;;;;;5047656;28;20499;-66
2023/10/15 07:09:53;;;;;;;5.77;2.40;;;7.00;99.90;;;;;;5053496;28;20510;-64
2023/10/15 07:12:20;;;;;;;3.50;2.53;;;6.90;99.90;;;;;;5052302;28;20478;-64
2023/10/15 07:14:46;;;;;;;4.90;2.83;;;6.90;99.90;;;;;;5052521;28;20390;-70
2023/10/15 07:17:11;;;;;;;8.93;2.60;;;7.00;99.90;;;;;;5051689;28;20428;-64
2023/10/15 07:19:37;;;;;;;4.70;2.20;;;7.00;99.90;;;;;;5053350;28;20402;-66
2023/10/15 07:22:04;;;;;;;4.60;2.30;;;7.00;99.90;;;;;;5051294;28;20190;-64
2023/10/15 07:24:31;;;;;;;3.10;2.20;;;7.00;99.90;;;;;;5053064;28;20225;-76
2023/10/15 07:26:57;;;;;;;3.53;2.40;;;7.10;99.90;;;;;;5053245;28;20424;-65
2023/10/15 07:29:24;;;;;;;3.03;2.10;;;7.20;99.90;;;;;;5053279;28;20552;-64
2023/10/15 07:31:51;;;;;;;7.90;3.70;;;7.40;99.90;;;;;;5050876;28;20512;-64
2023/10/15 07:34:19;;;;;;;3.77;2.57;;;7.50;99.90;;;;;;5052139;28;20944;-64
2023/10/15 07:36:45;;;;;;;7.43;3.40;;;7.60;99.90;;;;;;5049579;28;20442;-64
2023/10/15 07:39:11;;;;;;;11.97;5.03;;;7.60;99.90;;;;;;5053178;28;20406;-64
2023/10/15 07:41:37;;;;;;;5.13;2.40;;;7.70;99.90;;;;;;5053206;28;20402;-65
2023/10/15 07:44:03;;;;;;;6.07;2.20;;;7.70;99.90;;;;;;5053072;28;20748;-65
2023/10/15 07:46:30;;;;;;;4.93;2.20;;;7.80;99.90;;;;;;5052221;28;20496;-64
2023/10/15 07:48:57;;;;;;;12.03;3.53;;;7.80;99.90;;;;;;5053009;28;20447;-65
2023/10/15 07:51:23;;;;;;;7.23;2.60;;;7.90;99.90;;;;;;5051937;28;20433;-64
2023/10/15 07:53:49;;;;;;;18.43;2.40;;;7.90;99.90;;;;;;5051690;28;20448;-64
2023/10/15 07:56:15;;;;;;;5.03;2.80;;;7.90;99.90;;;;;;5050358;28;21116;-65
2023/10/15 07:58:41;;;;;;;10.23;2.83;;;8.00;99.90;;;;;;5052976;28;20176;-64
2023/10/15 08:01:07;;;;;;;7.00;2.43;;;8.10;99.90;;;;;;5053103;28;20181;-65
2023/10/15 08:03:32;;;;;;;18.00;4.47;;;8.10;99.90;;;;;;5050896;28;20786;-66
2023/10/15 08:06:01;;;;;;;14.03;5.10;;;8.10;99.90;;;;;;5051773;28;20212;-69
2023/10/15 08:08:28;;;;;;;6.80;3.60;;;8.20;99.90;;;;;;5053432;28;20625;-64
2023/10/15 08:10:55;;;;;;;6.40;2.77;;;8.30;99.90;;;;;;5056932;28;20947;-65
2023/10/15 08:13:22;;;;;;;5.40;2.73;;;8.20;99.90;;;;;;5056132;28;20397;-64
2023/10/15 08:15:47;;;;;;;8.40;2.77;;;8.40;99.90;;;;;;5055773;28;20419;-66
2023/10/15 08:18:13;;;;;;;12.17;4.37;;;8.50;99.90;;;;;;5052223;28;20797;-66
2023/10/15 08:20:39;;;;;;;7.83;3.60;;;8.60;99.90;;;;;;5036309;28;20189;-64
2023/10/15 08:23:05;;;;;;;4.00;2.30;;;8.70;99.90;;;;;;5052886;28;20442;-65
2023/10/15 08:25:32;;;;;;;6.10;2.97;;;8.80;99.90;;;;;;5054869;28;20192;-65
2023/10/15 08:27:58;;;;;;;4.63;2.50;;;8.90;99.90;;;;;;5056465;28;20440;-65
2023/10/15 08:30:23;;;;;;;7.40;3.67;;;9.00;99.90;;;;;;5055844;28;20423;-64
2023/10/15 08:32:49;;;;;;;12.80;3.67;;;9.10;99.90;;;;;;5054709;28;20957;-65
2023/10/15 08:35:16;;;;;;;8.33;2.93;;;9.20;99.90;;;;;;5055417;28;20704;-64
2023/10/15 08:37:43;;;;;;;10.57;3.90;;;9.30;99.90;;;;;;5056384;28;20186;-64
2023/10/15 08:40:15;;;;;;;12.70;3.63;;;9.30;79.90;;;;;;5056161;28;20413;-65
2023/10/15 08:43:06;;;;;;;8.40;3.03;;;9.40;49.80;;;;;;5056390;28;20936;-65
2023/10/15 08:45:34;;;;;;;7.37;3.67;;;9.60;43.50;;;;;;5055354;28;20995;-67
2023/10/15 08:48:01;;;;;;;6.90;4.53;;;9.60;26.00;;;;;;5038526;28;20458;-65
2023/10/15 08:50:29;;;;;;;11.03;3.67;;;9.60;14.80;;;;;;5046910;28;20433;-65
2023/10/15 08:52:55;;;;;;;8.40;2.63;;;9.50;1.00;;;;;;5056258;28;20390;-65
2023/10/15 08:55:24;;;;;;;8.53;3.07;;;9.60;1.00;;;;;;5052595;28;20399;-65
2023/10/15 08:57:54;;;;;;;7.67;3.80;;;9.80;1.00;;;;;;5035885;28;20821;-64
2023/10/15 09:00:25;;;;;;;13.93;4.30;;;10.00;1.00;;;;;;5034733;28;20508;-65
2023/10/15 09:02:56;;;;;;;10.27;2.90;;;10.30;1.00;;;;;;5035884;28;20401;-67
2023/10/15 09:05:25;;;;;;;13.70;3.10;;;10.60;1.00;;;;;;5033336;28;20438;-65
2023/10/15 09:07:54;;;;;;;15.87;3.97;;;11.00;1.00;;;;;;5050233;28;20448;-65
2023/10/15 09:10:20;;;;;;;7.13;3.00;;;11.30;1.00;;;;;;5055631;28;20404;-65
2023/10/15 09:12:49;;;;;;;14.60;3.40;;;11.60;1.00;;;;;;5055729;28;20401;-65
2023/10/15 09:15:16;;;;;;;9.70;4.07;;;11.60;1.00;;;;;;5055172;28;20795;-65
2023/10/15 09:18:03;;;;;;;6.83;3.00;;;11.40;1.00;;;;;;5055647;28;20393;-65
2023/10/15 09:20:32;;;;;;;6.73;3.03;;;11.30;1.00;;;;;;5049765;28;20421;-67
2023/10/15 09:23:00;;;;;;;5.93;2.93;;;11.00;1.00;;;;;;5034918;28;20825;-65
2023/10/15 09:25:27;;;;;;;8.20;4.37;;;10.80;1.00;;;;;;5042133;28;20400;-65
2023/10/15 09:27:54;;;;;;;10.33;3.27;;;10.70;1.00;;;;;;5054621;28;20432;-65
2023/10/15 09:30:30;;;;;;;9.40;3.30;;;10.70;1.00;;;;;;5055383;28;20380;-65
2023/10/15 09:32:57;;;;;;;9.13;3.70;;;10.60;1.00;;;;;;5055371;28;20372;-65
2023/10/15 09:35:23;;;;;;;10.97;3.10;;;10.60;1.00;;;;;;5054447;28;20357;-65
2023/10/15 09:37:50;;;;;;;8.70;2.97;;;10.80;1.00;;;;;;5055268;28;20466;-65
2023/10/15 09:40:19;;;;;;;11.23;4.43;;;10.90;1.00;;;;;;5049997;28;20554;-69
2023/10/15 09:42:49;;;;;;;10.23;3.30;;;11.10;1.00;;;;;;5042469;28;20393;-67
2023/10/15 09:45:18;;;;;;;17.40;3.70;;;11.40;1.00;;;;;;5038226;28;20492;-65
2023/10/15 09:47:49;;;;;;;9.80;3.33;;;11.50;1.00;;;;;;5035079;28;20883;-65
2023/10/15 09:50:19;;;;;;;12.77;3.40;;;11.50;1.00;;;;;;5035045;28;20429;-64
2023/10/15 09:52:55;;;;;;;10.23;3.70;;;11.50;1.00;;;;;;5035063;28;20384;-65
2023/10/15 09:55:28;;;;;;;11.60;3.40;;;11.50;1.00;;;;;;5035550;28;20454;-64
2023/10/15 09:57:56;;;;;;;13.00;2.90;;;11.60;1.00;;;;;;5049635;28;20500;-65
2023/10/15 10:00:47;;;;;;;8.80;3.23;;;12.00;1.00;;;;;;5054697;28;20372;-66
2023/10/15 10:03:25;;;;;;;10.33;4.20;;;12.50;1.00;;;;;;5054389;28;20930;-65
2023/10/15 10:06:22;;;;;;;17.53;4.03;;;12.90;1.00;;;;;;5052458;28;20427;-65
2023/10/15 10:09:25;;;;;;;13.53;3.50;;;13.30;1.00;;;;;;5033892;28;20458;-66
2023/10/15 10:12:07;;;;;;;6.50;2.67;;;13.30;99.90;;;;;;5034829;28;20497;-65
2023/10/15 10:15:05;;;;;;;9.57;3.17;;;13.30;99.90;;;;;;5033847;28;20369;-68
2023/10/15 10:17:32;;;;;;;8.90;3.10;;;13.30;99.90;;;;;;5033341;28;20416;-64
2023/10/15 10:20:03;;;;;;;9.30;3.73;;;13.40;99.90;;;;;;5034323;28;20410;-65
2023/10/15 10:22:29;;;;;;;6.10;3.13;;;13.40;99.90;;;;;;5053022;28;20910;-65
2023/10/15 10:24:58;;;;;;;5.17;2.67;;;13.30;99.90;;;;;;5053542;28;20396;-67
2023/10/15 10:27:25;;;;;;;14.60;3.30;;;13.20;99.90;;;;;;5054157;28;20190;-65
2023/10/15 10:29:52;;;;;;;11.13;3.90;;;12.90;99.90;;;;;;5052992;28;20457;-65
2023/10/15 10:32:19;;;;;;;6.03;2.50;;;12.80;99.90;;;;;;5053809;28;20405;-65
2023/10/15 10:34:46;;;;;;;13.23;3.93;;;12.80;99.90;;;;;;5051591;28;20428;-66
2023/10/15 10:37:23;;;;;;;7.83;3.27;;;12.80;99.90;;;;;;5054002;28;20399;-65
2023/10/15 10:39:49;;;;;;;9.50;2.90;;;12.70;99.90;;;;;;5053367;28;20820;-65
2023/10/15 10:42:26;;;;;;;7.83;2.77;;;12.70;99.90;;;;;;5054035;28;20397;-65
2023/10/15 10:44:56;;;;;;;7.00;2.63;;;12.80;99.90;;;;;;5053038;28;20388;-64
2023/10/15 10:47:46;;;;;;;2.40;1.60;;;12.90;99.90;;;;;;5053916;28;20791;-64
2023/10/15 10:50:12;;;;;;;5.33;2.20;;;12.90;99.90;;;;;;5039667;28;20462;-66
2023/10/15 10:52:38;;;;;;;4.80;3.13;;;12.50;99.90;;;;;;5033898;28;20423;-65
2023/10/15 10:55:31;;;;;;;4.70;2.03;;;12.30;99.90;;;;;;5032994;28;20174;-66
2023/10/15 10:57:58;;;;;;;6.20;2.40;;;12.20;99.90;;;;;;5033908;28;20520;-64
2023/10/15 11:00:23;;;;;;;5.03;2.17;;;12.10;99.90;;;;;;5033192;28;20767;-64
2023/10/15 11:02:49;;;;;;;5.03;2.73;;;12.10;99.90;;;;;;5033651;28;20377;-71
2023/10/15 11:05:17;;;;;;;11.00;3.30;;;12.10;99.90;;;;;;5051834;28;20195;-66
2023/10/15 11:07:46;;;;;;;7.83;3.70;;;12.20;99.90;;;;;;5053592;28;20186;-64
2023/10/15 11:10:12;;;;;;;6.30;2.63;;;12.30;99.90;;;;;;5052436;28;20479;-64
2023/10/15 11:12:37;;;;;;;6.40;2.30;;;12.10;99.90;;;;;;5053578;28;20402;-64
2023/10/15 11:15:08;;;;;;;6.60;2.60;;;12.00;99.90;;;;;;5048717;28;20428;-71
2023/10/15 11:17:34;;;;;;;6.40;1.57;;;11.70;99.90;;;;;;5052725;28;20413;-64
2023/10/15 11:20:03;;;;;;;6.20;1.67;;;11.80;99.90;;;;;;5053440;28;20959;-65
2023/10/15 11:22:29;;;;;;;2.87;1.77;;;11.90;99.90;;;;;;5052180;28;20396;-65
2023/10/15 11:24:55;;;;;;;5.80;1.87;;;12.10;99.90;;;;;;5052563;28;20380;-65
2023/10/15 11:27:21;;;;;;;3.67;1.70;;;12.20;99.90;;;;;;5053152;28;20483;-66
2023/10/15 11:29:47;;;;;;;5.33;2.23;;;12.20;99.90;;;;;;5050212;28;20217;-65
2023/10/15 11:32:13;;;;;;;2.20;1.50;;;12.30;99.90;;;;;;5053352;28;20750;-64
2023/10/15 11:34:39;;;;;;;2.47;2.00;;;12.40;99.90;;;;;;5052367;28;20167;-65
2023/10/15 11:37:09;;;;;;;4.50;1.60;;;12.60;99.90;;;;;;5051232;28;20273;-64
2023/10/15 11:39:38;;;;;;;4.50;1.83;;;12.80;99.90;;;;;;5053048;28;20479;-65
2023/10/15 11:42:04;;;;;;;4.40;2.07;;;13.00;99.90;;;;;;5053215;28;20420;-64
2023/10/15 11:44:33;;;;;;;3.83;1.80;;;13.10;99.90;;;;;;5041429;28;20438;-77
2023/10/15 11:47:09;;;;;;;6.00;2.67;;;13.10;99.90;;;;;;5033160;28;20521;-65
2023/10/15 11:49:38;;;;;;;3.13;1.57;;;13.00;99.90;;;;;;5033188;28;20457;-65
2023/10/15 11:52:11;;;;;;;2.60;1.87;;;12.70;99.90;;;;;;5033331;28;20468;-64
2023/10/15 11:54:43;;;;;;;8.80;3.20;;;12.40;99.90;;;;;;5036870;28;20807;-67
2023/10/15 11:57:16;;;;;;;5.80;2.00;;;12.10;99.90;;;;;;5052934;28;20433;-64
2023/10/15 11:59:45;;;;;;;5.70;1.90;;;11.90;99.90;;;;;;5052857;28;20433;-66
2023/10/15 12:02:11;;;;;;;9.03;2.00;;;11.80;99.90;;;;;;5053093;28;20412;-65
2023/10/15 12:04:40;;;;;;;3.30;1.53;;;11.90;99.90;;;;;;5051991;28;20380;-65
2023/10/15 12:07:11;;;;;;;9.17;2.67;;;12.00;99.90;;;;;;5049595;28;20510;-65
2023/10/15 12:09:39;;;;;;;11.00;5.53;;;12.20;99.90;;;;;;5052676;28;20632;-64
2023/10/15 12:12:07;;;;;;;13.50;1.93;;;12.40;99.90;;;;;;5052642;28;20410;-67
2023/10/15 12:14:33;;;;;;;3.80;2.00;;;12.70;99.90;;;;;;5047051;28;20933;-65
2023/10/15 12:16:59;;;;;;;2.20;1.43;;;12.70;99.90;;;;;;5041043;28;20404;-65
2023/10/15 12:19:24;;;;;;;3.83;1.47;;;12.70;99.90;;;;;;5052812;28;20631;-65
2023/10/15 12:21:50;;;;;;;4.83;1.40;;;12.80;99.90;;;;;;5051402;28;20254;-66
2023/10/15 12:24:17;;;;;;;3.70;1.60;;;12.90;99.90;;;;;;5052751;28;20178;-65
2023/10/15 12:26:46;;;;;;;5.53;2.27;;;12.60;99.90;;;;;;5051746;28;20545;-64
2023/10/15 12:29:13;;;;;;;2.90;1.40;;;12.30;99.90;;;;;;5052302;28;20439;-65
2023/10/15 12:31:43;;;;;;;5.60;2.60;;;11.80;99.90;;;;;;5052297;28;20372;-64
2023/10/15 12:34:12;;;;;;;6.73;2.10;;;11.40;99.90;;;;;;5040140;28;20385;-65
2023/10/15 12:36:41;;;;;;;4.80;2.03;;;11.10;99.90;;;;;;5031767;28;20917;-65
2023/10/15 12:39:07;;;;;;;7.20;2.10;;;10.80;99.90;;;;;;5033073;28;20415;-65
2023/10/15 12:41:38;;;;;;;5.43;3.00;;;10.60;1.00;;;;;;5032737;28;20402;-64
2023/10/15 12:44:11;;;;;;;1.87;1.77;;;10.50;1.00;;;;;;5032560;28;20207;-64
2023/10/15 12:46:37;;;;;;;2.97;1.50;;;10.30;1.00;;;;;;5031720;28;20425;-64
2023/10/15 12:49:03;;;;;;;4.07;1.93;;;10.20;1.00;;;;;;5031637;28;20443;-64
2023/10/15 12:51:30;;;;;;;3.37;2.40;;;10.00;1.00;;;;;;5045754;28;20413;-65
2023/10/15 12:53:56;;;;;;;3.00;1.70;;;10.20;1.00;;;;;;5052357;28;20459;-66
2023/10/15 12:56:22;;;;;;;2.53;1.50;;;10.60;1.00;;;;;;5052750;28;20506;-64
2023/10/15 12:58:49;;;;;;;5.70;2.07;;;11.30;1.00;;;;;;5039723;28;20433;-65
2023/10/15 13:01:19;;;;;;;3.93;1.80;;;12.20;1.00;;;;;;5036000;28;20385;-65
2023/10/15 13:03:47;;;;;;;4.20;1.70;;;12.50;1.00;;;;;;5035896;28;20389;-65
2023/10/15 13:06:15;;;;;;;6.53;1.37;;;12.10;1.00;;;;;;5035174;28;20578;-66
2023/10/15 13:08:41;;;;;;;2.60;1.20;;;11.90;1.00;;;;;;5035862;28;20460;-64
2023/10/15 13:11:08;;;;;;;3.27;1.33;;;12.00;1.00;;;;;;5042811;28;20400;-65
2023/10/15 13:13:33;;;;;;;3.93;3.53;;;12.90;1.00;;;;;;5055784;28;20459;-65
2023/10/15 13:15:59;;;;;;;2.87;1.60;;;13.90;1.00;;;;;;5054728;28;20812;-67
2023/10/15 13:18:25;;;;;;;2.30;1.20;;;14.80;1.00;;;;;;5055573;28;20182;-64
2023/10/15 13:20:51;;;;;;;1.20;1.10;;;15.60;1.00;;;;;;5055460;28;20254;-66